Time;durP1;ratioP1;P1;durP2;ratioP2;P2;SDS_P1;SDS_P2;PMS_P1;PMS_P2;Temp;Humidity;BMP_temperature;BMP_pressure;BME280_temperature;BME280_humidity;BME280_pressure;Samples;Min_cycle;Max_cycle;Signal;HPM_P1;HPM_P2
2024/04/16 00:00:35;;;;;;;;;;;;;;;30.13;27.03;96563.34;5437810;26;19937;-81
2024/04/16 00:03:01;;;;;;;;;;;;;;;30.14;26.66;96555.63;5434287;26;19940;-80
2024/04/16 00:05:30;;;;;;;;;;;;;;;30.08;26.73;96562.06;5436603;26;19929;-81
2024/04/16 00:07:56;;;;;;;;;;;;;;;30.30;26.65;96554.88;5436573;26;19947;-80
2024/04/16 00:10:23;;;;;;;;;;;;;;;30.42;26.45;96554.41;5442224;26;19935;-81
2024/04/16 00:12:49;;;;;;;;;;;;;;;30.45;26.08;96546.97;5443494;26;20344;-81
2024/04/16 00:15:15;;;;;;;;;;;;;;;30.12;26.76;96556.16;5441427;26;19960;-81
2024/04/16 00:17:43;;;;;;;;;;;;;;;29.91;26.74;96558.41;5440977;26;19929;-81
2024/04/16 00:20:09;;;;;;;;;;;;;;;29.81;27.13;96551.44;5443371;26;19943;-81
2024/04/16 00:22:35;;;;;;;;;;;;;;;29.73;26.88;96550.38;5444433;26;20263;-80
2024/04/16 00:25:02;;;;;;;;;;;;;;;30.07;26.63;96560.53;5444405;26;19936;-80
2024/04/16 00:27:29;;;;;;;;;;;;;;;30.33;26.01;96540.50;5441227;26;19936;-81
2024/04/16 00:29:57;;;;;;;;;;;;;;;30.44;26.03;96534.84;5441445;26;19943;-81
2024/04/16 00:32:23;;;;;;;;;;;;;;;30.22;26.29;96539.69;5426416;26;19982;-81
2024/04/16 00:34:49;;;;;;;;;;;;;;;30.09;26.75;96543.78;5432795;26;20376;-81
2024/04/16 00:37:15;;;;;;;;;;;;;;;30.31;26.12;96550.78;5439210;26;19958;-81
2024/04/16 00:39:41;;;;;;;;;;;;;;;30.34;26.14;96559.03;5438790;26;19928;-81
2024/04/16 00:42:08;;;;;;;;;;;;;;;30.15;26.29;96560.81;5438367;26;20305;-81
2024/04/16 00:44:34;;;;;;;;;;;;;;;30.21;26.54;96560.78;5439632;26;19952;-81
2024/04/16 00:47:00;;;;;;;;;;;;;;;30.42;26.06;96560.09;5450365;26;19936;-80
2024/04/16 00:49:26;;;;;;;;;;;;;;;30.50;26.34;96557.53;5451163;26;19928;-80
2024/04/16 00:51:53;;;;;;;;;;;;;;;30.03;26.78;96553.56;5452328;26;19940;-81
2024/04/16 00:54:20;;;;;;;;;;;;;;;29.93;26.70;96544.53;5450752;26;19936;-81
2024/04/16 00:56:46;;;;;;;;;;;;;;;29.79;26.96;96544.75;5453521;26;19928;-81
2024/04/16 00:59:13;;;;;;;;;;;;;;;29.87;26.66;96535.22;5463117;26;19936;-81
2024/04/16 01:01:39;;;;;;;;;;;;;;;30.04;26.52;96536.06;5443830;26;19957;-81
2024/04/16 01:04:06;;;;;;;;;;;;;;;30.37;25.98;96531.75;5438473;26;19929;-81
2024/04/16 01:06:32;;;;;;;;;;;;;;;30.44;26.19;96517.84;5450336;26;19928;-81
2024/04/16 01:08:58;;;;;;;;;;;;;;;29.73;26.95;96526.94;5434269;26;19937;-81
2024/04/16 01:11:25;;;;;;;;;;;;;;;29.90;26.98;96514.41;5448642;26;20356;-81
2024/04/16 01:13:52;;;;;;;;;;;;;;;29.95;26.54;96496.66;5448909;26;20000;-80
2024/04/16 01:16:18;;;;;;;;;;;;;;;30.10;26.50;96493.63;5435917;26;19935;-81
2024/04/16 01:18:44;;;;;;;;;;;;;;;30.00;26.78;96486.66;5439127;26;19947;-81
2024/04/16 01:21:10;;;;;;;;;;;;;;;30.14;26.82;96485.63;5433657;26;19936;-81
2024/04/16 01:23:36;;;;;;;;;;;;;;;30.30;26.21;96489.75;5424964;26;20055;-81
2024/04/16 01:26:02;;;;;;;;;;;;;;;30.27;26.30;96479.47;5441216;26;19928;-81
2024/04/16 01:28:28;;;;;;;;;;;;;;;30.47;26.27;96476.41;5449993;26;19941;-81
2024/04/16 01:30:54;;;;;;;;;;;;;;;30.74;25.65;96467.84;5449736;26;19943;-81
2024/04/16 01:33:20;;;;;;;;;;;;;;;30.64;26.13;96475.06;5450509;26;19939;-81
2024/04/16 01:35:46;;;;;;;;;;;;;;;30.54;25.98;96471.00;5451457;26;19929;-81
2024/04/16 01:38:12;;;;;;;;;;;;;;;30.63;26.17;96484.09;5451507;26;20353;-81
2024/04/16 01:40:39;;;;;;;;;;;;;;;30.40;26.65;96496.75;5451429;26;19932;-81
2024/04/16 01:43:05;;;;;;;;;;;;;;;30.29;26.69;96476.91;5419569;26;19935;-81
2024/04/16 01:45:31;;;;;;;;;;;;;;;30.45;26.38;96482.59;5441884;26;19936;-81
2024/04/16 01:47:57;;;;;;;;;;;;;;;30.71;26.22;96505.72;5450806;26;19999;-81
2024/04/16 01:50:23;;;;;;;;;;;;;;;30.83;26.09;96522.75;5458786;26;19935;-81
2024/04/16 01:52:49;;;;;;;;;;;;;;;30.92;26.02;96523.28;5449153;26;19959;-80
2024/04/16 01:55:15;;;;;;;;;;;;;;;30.69;26.27;96491.31;5449430;26;19935;-81
2024/04/16 01:57:41;;;;;;;;;;;;;;;30.44;26.32;96468.91;5445981;26;20074;-81
2024/04/16 02:00:08;;;;;;;;;;;;;;;29.83;26.93;96483.00;5448963;26;20363;-81
2024/04/16 02:02:37;;;;;;;;;;;;;;;30.03;26.64;96494.91;5441261;26;19951;-81
2024/04/16 02:05:03;;;;;;;;;;;;;;;30.30;26.41;96489.75;5439549;26;19937;-81
2024/04/16 02:07:32;;;;;;;;;;;;;;;30.43;26.08;96476.66;5438166;26;20380;-80
2024/04/16 02:09:58;;;;;;;;;;;;;;;30.19;26.55;96478.44;5437328;26;19928;-81
2024/04/16 02:12:24;;;;;;;;;;;;;;;30.25;26.32;96493.34;5417628;26;20274;-80
2024/04/16 02:14:50;;;;;;;;;;;;;;;30.46;26.08;96503.94;5444347;26;19928;-81
2024/04/16 02:17:16;;;;;;;;;;;;;;;30.02;26.92;96524.47;5438366;26;19937;-81
2024/04/16 02:19:43;;;;;;;;;;;;;;;29.97;27.17;96532.94;5451051;26;20360;-81
2024/04/16 02:22:09;;;;;;;;;;;;;;;29.97;27.04;96549.94;5445208;26;19932;-81
2024/04/16 02:24:35;;;;;;;;;;;;;;;28.93;28.05;96577.16;5454347;26;19944;-80
2024/04/16 02:27:01;;;;;;;;;;;;;;;26.55;31.32;96611.59;5442342;26;20334;-81
2024/04/16 02:29:27;;;;;;;;;;;;;;;24.26;34.74;96619.53;5437217;26;20337;-81
2024/04/16 02:31:53;;;;;;;;;;;;;;;25.13;33.15;96606.16;5436499;26;20415;-80
2024/04/16 02:34:20;;;;;;;;;;;;;;;26.44;30.63;96611.38;5436341;26;19943;-80
2024/04/16 02:36:46;;;;;;;;;;;;;;;26.37;30.08;96603.31;5441606;26;19935;-81
2024/04/16 02:39:12;;;;;;;;;;;;;;;26.16;29.75;96573.56;5437206;26;19928;-81
2024/04/16 02:41:38;;;;;;;;;;;;;;;27.07;28.58;96555.59;5445598;26;19938;-81
2024/04/16 02:44:04;;;;;;;;;;;;;;;26.86;29.20;96562.44;5445611;26;19936;-82
2024/04/16 02:46:30;;;;;;;;;;;;;;;25.83;30.31;96584.16;5447012;26;19933;-81
2024/04/16 02:48:56;;;;;;;;;;;;;;;24.60;32.57;96588.25;5446582;26;19928;-81
2024/04/16 02:51:22;;;;;;;;;;;;;;;25.28;31.57;96587.31;5415166;26;19928;-81
2024/04/16 02:53:48;;;;;;;;;;;;;;;25.47;31.57;96587.22;5440216;26;20022;-80
2024/04/16 02:56:14;;;;;;;;;;;;;;;26.04;30.75;96574.56;5441104;26;20687;-81
2024/04/16 02:58:41;;;;;;;;;;;;;;;26.75;29.78;96585.56;5445801;26;19936;-81
2024/04/16 03:01:07;;;;;;;;;;;;;;;25.36;31.11;96602.59;5446332;26;19932;-81
2024/04/16 03:03:34;;;;;;;;;;;;;;;25.91;30.48;96610.63;5447746;26;19928;-81
2024/04/16 03:06:00;;;;;;;;;;;;;;;25.86;30.34;96578.31;5442686;26;20379;-81
2024/04/16 03:08:26;;;;;;;;;;;;;;;25.97;30.28;96577.78;5442514;26;20012;-81
2024/04/16 03:10:56;;;;;;;;;;;;;;;26.17;30.37;96575.09;5441226;26;20377;-82
2024/04/16 03:13:22;;;;;;;;;;;;;;;26.74;29.53;96592.44;5438040;26;20257;-81
2024/04/16 03:15:48;;;;;;;;;;;;;;;27.36;28.57;96583.66;5438223;26;19974;-81
2024/04/16 03:18:14;;;;;;;;;;;;;;;27.55;28.19;96568.03;5442144;26;19928;-81
2024/04/16 03:20:40;;;;;;;;;;;;;;;27.32;28.66;96563.34;5445268;26;19965;-81
2024/04/16 03:23:06;;;;;;;;;;;;;;;27.56;27.83;96555.50;5446481;26;20007;-81
2024/04/16 03:25:39;;;;;;;;;;;;;;;27.29;28.42;96558.69;5443746;26;19936;-81
2024/04/16 03:28:05;;;;;;;;;;;;;;;27.30;28.29;96557.44;5448609;26;20520;-81
2024/04/16 03:30:31;;;;;;;;;;;;;;;27.05;28.50;96558.13;5452049;26;19943;-81
2024/04/16 03:32:58;;;;;;;;;;;;;;;27.33;28.09;96550.81;5457694;26;19940;-82
2024/04/16 03:35:24;;;;;;;;;;;;;;;27.73;27.34;96559.28;5452031;26;19939;-81
2024/04/16 03:37:50;;;;;;;;;;;;;;;27.76;27.29;96558.28;5444767;26;19928;-81
2024/04/16 03:40:16;;;;;;;;;;;;;;;27.95;27.07;96561.59;5451655;26;19964;-81
2024/04/16 03:42:42;;;;;;;;;;;;;;;27.53;26.87;96558.53;5450870;26;19940;-81
2024/04/16 03:45:08;;;;;;;;;;;;;;;27.90;26.62;96539.72;5449183;26;19936;-81
2024/04/16 03:47:34;;;;;;;;;;;;;;;28.23;26.08;96547.78;5451058;26;19935;-81
2024/04/16 03:50:00;;;;;;;;;;;;;;;27.72;26.47;96538.00;5459786;26;19932;-81
2024/04/16 03:52:26;;;;;;;;;;;;;;;27.71;26.51;96542.09;5448885;26;19956;-81
2024/04/16 03:54:52;;;;;;;;;;;;;;;28.27;25.97;96542.66;5439559;26;19937;-82
2024/04/16 03:57:18;;;;;;;;;;;;;;;28.72;25.40;96550.28;5450015;26;20013;-82
2024/04/16 04:02:29;;;;;;;;;;;;;;;28.78;25.38;96539.03;5448065;26;19997;-81
2024/04/16 04:04:55;;;;;;;;;;;;;;;28.89;25.52;96541.94;5450273;26;19980;-80
2024/04/16 04:07:21;;;;;;;;;;;;;;;28.75;25.42;96552.88;5453415;26;19934;-80
2024/04/16 04:09:47;;;;;;;;;;;;;;;27.94;26.25;96565.66;5449646;26;19940;-81
2024/04/16 04:12:13;;;;;;;;;;;;;;;27.82;26.63;96549.91;5448269;26;19944;-81
2024/04/16 04:14:40;;;;;;;;;;;;;;;27.91;26.64;96550.50;5420226;26;19929;-81
2024/04/16 04:17:06;;;;;;;;;;;;;;;28.00;26.46;96564.50;5448736;26;20383;-81
2024/04/16 04:19:32;;;;;;;;;;;;;;;27.90;26.51;96567.94;5446271;26;19940;-81
2024/04/16 04:21:58;;;;;;;;;;;;;;;28.41;26.01;96578.47;5427451;26;19936;-81
2024/04/16 04:24:24;;;;;;;;;;;;;;;27.84;26.28;96592.50;5444286;26;19929;-81
2024/04/16 04:26:50;;;;;;;;;;;;;;;28.06;26.56;96596.38;5443543;26;19929;-81
2024/04/16 04:29:16;;;;;;;;;;;;;;;27.74;26.68;96597.50;5439422;26;19940;-82
2024/04/16 04:31:42;;;;;;;;;;;;;;;28.41;25.92;96578.47;5440387;26;19930;-82
2024/04/16 04:34:08;;;;;;;;;;;;;;;28.58;25.51;96573.75;5444494;26;19929;-82
2024/04/16 04:36:35;;;;;;;;;;;;;;;29.03;25.17;96591.88;5444967;26;20391;-83
2024/04/16 04:39:02;;;;;;;;;;;;;;;29.33;24.93;96601.59;5441436;26;19944;-83
2024/04/16 04:41:28;;;;;;;;;;;;;;;29.48;24.73;96605.00;5410179;26;19928;-82
2024/04/16 04:43:54;;;;;;;;;;;;;;;29.78;24.80;96597.72;5439264;26;20247;-82
2024/04/16 04:46:20;;;;;;;;;;;;;;;29.66;24.64;96615.16;5445023;26;20500;-81
2024/04/16 04:48:46;;;;;;;;;;;;;;;29.61;25.09;96622.31;5436455;26;19928;-82
2024/04/16 04:51:13;;;;;;;;;;;;;;;29.68;24.65;96612.56;5411521;26;19943;-81
2024/04/16 04:53:39;;;;;;;;;;;;;;;29.77;24.81;96616.00;5442052;26;19970;-82
2024/04/16 04:56:07;;;;;;;;;;;;;;;29.62;24.80;96614.59;5407309;26;19929;-83
2024/04/16 04:58:33;;;;;;;;;;;;;;;29.36;25.35;96626.78;5446459;26;19929;-81
2024/04/16 05:01:01;;;;;;;;;;;;;;;29.23;25.55;96646.25;5450080;26;20537;-81
2024/04/16 05:03:28;;;;;;;;;;;;;;;28.93;25.37;96656.28;5449345;26;19929;-81
2024/04/16 05:05:54;;;;;;;;;;;;;;;28.18;26.13;96655.75;5446204;26;19939;-80
2024/04/16 05:08:20;;;;;;;;;;;;;;;27.94;26.71;96659.53;5449010;26;19928;-81
2024/04/16 05:10:50;;;;;;;;;;;;;;;28.16;26.64;96652.66;5448704;26;19943;-81
2024/04/16 05:13:17;;;;;;;;;;;;;;;27.55;27.46;96672.38;5446772;26;19928;-80
2024/04/16 05:15:46;;;;;;;;;;;;;;;27.01;28.11;96665.38;5449095;26;19935;-80
2024/04/16 05:18:12;;;;;;;;;;;;;;;26.49;28.65;96669.06;5446817;26;19939;-81
2024/04/16 05:20:38;;;;;;;;;;;;;;;26.28;28.03;96650.50;5412050;26;19929;-81
2024/04/16 05:23:04;;;;;;;;;;;;;;;25.82;27.79;96650.06;5444808;26;19936;-80
2024/04/16 05:25:30;;;;;;;;;;;;;;;25.13;28.83;96658.75;5443962;26;19929;-81
2024/04/16 05:27:57;;;;;;;;;;;;;;;25.20;28.55;96672.44;5441981;26;19936;-80
2024/04/16 05:30:23;;;;;;;;;;;;;;;26.27;26.72;96660.97;5445942;26;19956;-81
2024/04/16 05:32:55;;;;;;;;;;;;;;;25.86;26.32;96656.28;5448062;26;20009;-80
2024/04/16 05:35:21;;;;;;;;;;;;;;;25.65;26.43;96646.91;5436108;26;19936;-80
2024/04/16 05:37:48;;;;;;;;;;;;;;;25.07;26.75;96647.38;5442486;26;20387;-80
2024/04/16 05:40:16;;;;;;;;;;;;;;;25.60;26.56;96658.78;5444603;26;20025;-81
2024/04/16 05:42:44;;;;;;;;;;;;;;;24.42;27.40;96664.84;5438238;26;19929;-80
2024/04/16 05:45:10;;;;;;;;;;;;;;;24.83;26.99;96663.41;5444188;26;19963;-80
2024/04/16 05:47:36;;;;;;;;;;;;;;;25.83;25.86;96669.28;5443864;26;20392;-79
2024/04/16 05:50:02;;;;;;;;;;;;;;;26.74;24.68;96666.44;5443876;26;20360;-80
2024/04/16 05:52:28;;;;;;;;;;;;;;;26.43;24.83;96671.75;5450576;26;19936;-80
2024/04/16 05:54:54;;;;;;;;;;;;;;;26.07;25.29;96681.25;5451615;26;19939;-80
2024/04/16 05:57:20;;;;;;;;;;;;;;;26.72;24.63;96676.63;5451218;26;19961;-80
2024/04/16 05:59:46;;;;;;;;;;;;;;;26.61;24.33;96687.69;5455161;26;19929;-79
2024/04/16 06:02:12;;;;;;;;;;;;;;;27.04;23.86;96683.34;5451164;26;20436;-80
2024/04/16 06:04:38;;;;;;;;;;;;;;;27.08;23.61;96681.09;5434806;26;19940;-80
2024/04/16 06:07:04;;;;;;;;;;;;;;;26.83;23.88;96684.53;5453860;26;20258;-80
2024/04/16 06:09:30;;;;;;;;;;;;;;;26.94;25.45;96688.31;5453785;26;19936;-80
2024/04/16 06:11:56;;;;;;;;;;;;;;;27.18;24.37;96686.16;5453205;26;20356;-80
2024/04/16 06:14:22;;;;;;;;;;;;;;;26.63;25.02;96697.19;5455126;26;19928;-80
2024/04/16 06:16:48;;;;;;;;;;;;;;;26.52;25.55;96718.75;5453160;26;19968;-80
2024/04/16 06:19:14;;;;;;;;;;;;;;;26.15;25.92;96740.00;5423442;26;20005;-80
2024/04/16 06:21:41;;;;;;;;;;;;;;;26.07;26.06;96743.16;5423296;26;19928;-80
2024/04/16 06:24:07;;;;;;;;;;;;;;;25.14;26.99;96727.69;5454742;26;19935;-80
2024/04/16 06:26:33;;;;;;;;;;;;;;;23.05;30.78;96735.91;5423627;26;20272;-80
2024/04/16 06:28:59;;;;;;;;;;;;;;;24.42;27.90;96728.59;5455594;26;20264;-80
2024/04/16 06:31:25;;;;;;;;;;;;;;;23.95;28.72;96732.63;5454768;26;20264;-80
2024/04/16 06:33:51;;;;;;;;;;;;;;;23.70;31.83;96713.28;5455574;26;20384;-81
2024/04/16 06:36:18;;;;;;;;;;;;;;;23.36;29.42;96733.88;5423804;26;19935;-80
2024/04/16 06:38:44;;;;;;;;;;;;;;;24.12;28.91;96723.94;5457394;26;19930;-81
2024/04/16 06:41:10;;;;;;;;;;;;;;;24.00;28.93;96728.41;5492105;26;19935;-81
2024/04/16 06:43:36;;;;;;;;;;;;;;;24.73;27.97;96720.78;5455493;26;20248;-80
2024/04/16 06:46:02;;;;;;;;;;;;;;;24.54;30.31;96728.44;5455552;26;20306;-81
2024/04/16 06:48:30;;;;;;;;;;;;;;;25.06;27.52;96738.50;5455442;26;20436;-80
2024/04/16 06:50:57;;;;;;;;;;;;;;;25.69;26.83;96745.91;5455289;26;19929;-80
2024/04/16 06:53:23;;;;;;;;;;;;;;;23.56;29.12;96771.91;5455550;26;19929;-80
2024/04/16 06:56:02;;;;;;;;;;;;;;;24.97;27.55;96786.25;5456623;26;20325;-81
2024/04/16 06:58:28;;;;;;;;;;;;;;;24.61;27.82;96803.91;5455234;26;19928;-80
2024/04/16 07:00:54;;;;;;;;;;;;;;;24.13;28.31;96806.84;5444646;26;19933;-81
2024/04/16 07:03:21;;;;;;;;;;;;;;;23.29;30.66;96809.00;5455396;26;19928;-80
2024/04/16 07:05:47;;;;;;;;;;;;;;;24.81;27.55;96797.81;5455235;26;19956;-80
2024/04/16 07:08:13;;;;;;;;;;;;;;;24.00;28.78;96796.50;5455279;26;20280;-80
2024/04/16 07:10:39;;;;;;;;;;;;;;;23.41;28.86;96777.31;5455243;26;20322;-80
2024/04/16 07:13:05;;;;;;;;;;;;;;;25.07;26.82;96762.50;5455904;26;20291;-81
2024/04/16 07:15:33;;;;;;;;;;;;;;;25.95;25.93;96751.84;5454751;26;19957;-81
2024/04/16 07:17:59;;;;;;;;;;;;;;;26.65;24.41;96741.78;5455263;26;20321;-81
2024/04/16 07:20:25;;;;;;;;;;;;;;;25.20;25.80;96734.25;5454852;26;20253;-80
2024/04/16 07:22:51;;;;;;;;;;;;;;;25.45;25.55;96733.84;5455299;26;20271;-81
2024/04/16 07:25:17;;;;;;;;;;;;;;;25.36;26.16;96740.25;5454968;26;19928;-81
2024/04/16 07:27:44;;;;;;;;;;;;;;;26.32;26.32;96733.47;5455031;26;19978;-81
2024/04/16 07:30:10;;;;;;;;;;;;;;;26.21;28.71;96741.66;5463362;26;19928;-80
2024/04/16 07:32:36;;;;;;;;;;;;;;;25.02;26.22;96748.34;5471135;26;19935;-80
2024/04/16 07:35:02;;;;;;;;;;;;;;;24.64;28.78;96743.25;5454851;26;19936;-80
2024/04/16 07:37:28;;;;;;;;;;;;;;;24.29;27.03;96754.03;5454662;26;19938;-80
2024/04/16 07:39:54;;;;;;;;;;;;;;;25.32;26.22;96773.34;5423130;26;20022;-81
2024/04/16 07:42:21;;;;;;;;;;;;;;;24.98;26.14;96781.41;5454640;26;19936;-81
2024/04/16 07:44:47;;;;;;;;;;;;;;;23.26;30.04;96793.88;5454565;26;19956;-81
2024/04/16 07:47:14;;;;;;;;;;;;;;;23.09;29.04;96814.94;5455365;26;19933;-81
2024/04/16 07:49:40;;;;;;;;;;;;;;;25.74;26.01;96811.97;5454551;26;20005;-81
2024/04/16 07:52:06;;;;;;;;;;;;;;;24.87;29.66;96814.81;5454614;26;19960;-81
2024/04/16 07:54:32;;;;;;;;;;;;;;;25.65;25.40;96824.00;5454702;26;20375;-81
2024/04/16 07:56:59;;;;;;;;;;;;;;;25.57;25.36;96824.81;5453011;26;20374;-80
2024/04/16 07:59:25;;;;;;;;;;;;;;;25.95;25.02;96848.22;5452512;26;19928;-80
2024/04/16 08:01:51;;;;;;;;;;;;;;;25.86;25.03;96831.41;5454509;26;19928;-81
2024/04/16 08:04:17;;;;;;;;;;;;;;;24.83;26.52;96857.13;5454861;26;20268;-81
2024/04/16 08:06:43;;;;;;;;;;;;;;;23.50;31.98;96852.22;5453927;26;20391;-80
2024/04/16 08:09:10;;;;;;;;;;;;;;;24.01;27.47;96873.75;5454381;26;19928;-81
2024/04/16 08:11:36;;;;;;;;;;;;;;;23.70;27.01;96878.63;5454121;26;19940;-81
2024/04/16 08:14:02;;;;;;;;;;;;;;;25.20;25.78;96864.25;5454410;26;19928;-81
2024/04/16 08:16:29;;;;;;;;;;;;;;;25.10;25.23;96873.16;5454130;26;19928;-81
2024/04/16 08:18:55;;;;;;;;;;;;;;;24.35;28.50;96875.59;5454313;26;20260;-81
2024/04/16 08:21:22;;;;;;;;;;;;;;;22.88;29.90;96884.91;5455387;26;20010;-81
2024/04/16 08:23:54;;;;;;;;;;;;;;;24.20;26.17;96879.47;5453628;26;19929;-81
2024/04/16 08:26:20;;;;;;;;;;;;;;;24.67;25.64;96871.41;5454035;26;19928;-81
2024/04/16 08:28:46;;;;;;;;;;;;;;;24.80;26.02;96851.63;5454287;26;19956;-81
2024/04/16 08:31:12;;;;;;;;;;;;;;;26.27;24.56;96849.50;5454363;26;20252;-81
2024/04/16 08:33:39;;;;;;;;;;;;;;;26.94;23.55;96853.72;5454039;26;19940;-81
2024/04/16 08:36:05;;;;;;;;;;;;;;;26.98;23.78;96851.50;5454308;26;19929;-81
2024/04/16 08:38:31;;;;;;;;;;;;;;;27.61;23.06;96847.28;5454445;26;19933;-81
2024/04/16 08:41:01;;;;;;;;;;;;;;;27.91;22.74;96843.16;5453509;26;19937;-81
2024/04/16 08:43:31;;;;;;;;;;;;;;;27.12;23.11;96836.66;5422481;26;19939;-82
2024/04/16 08:45:58;;;;;;;;;;;;;;;26.94;24.27;96859.34;5423042;26;19929;-81
2024/04/16 08:48:26;;;;;;;;;;;;;;;25.30;24.07;96881.84;5453541;26;20079;-81
2024/04/16 08:50:52;;;;;;;;;;;;;;;26.32;23.82;96887.47;5453725;26;19928;-81
2024/04/16 08:53:19;;;;;;;;;;;;;;;26.47;23.47;96886.28;5453569;26;19974;-81
2024/04/16 08:55:45;;;;;;;;;;;;;;;25.71;25.98;96880.38;5470808;26;19935;-81
2024/04/16 08:58:11;;;;;;;;;;;;;;;25.71;22.81;96897.25;5475949;26;19935;-81
2024/04/16 09:00:37;;;;;;;;;;;;;;;26.21;24.56;96899.25;5453657;26;19928;-81
2024/04/16 09:03:03;;;;;;;;;;;;;;;24.80;25.87;96899.38;5453308;26;20018;-81
2024/04/16 09:05:30;;;;;;;;;;;;;;;24.85;22.20;96891.09;5421786;26;19937;-81
2024/04/16 09:07:56;;;;;;;;;;;;;;;24.40;23.76;96897.41;5453232;26;19996;-81
2024/04/16 09:10:23;;;;;;;;;;;;;;;25.57;22.58;96907.13;5452988;26;20368;-81
2024/04/16 09:12:49;;;;;;;;;;;;;;;25.48;22.71;96900.75;5454539;26;19928;-81
2024/04/16 09:15:15;;;;;;;;;;;;;;;25.71;22.02;96894.44;5453896;26;19936;-81
2024/04/16 09:17:52;;;;;;;;;;;;;;;26.49;21.35;96903.44;5456819;26;19939;-81
2024/04/16 09:20:21;;;;;;;;;;;;;;;26.19;22.34;96910.19;5456194;26;19929;-81
2024/04/16 09:22:48;;;;;;;;;;;;;;;26.14;21.41;96896.78;5455148;26;19929;-81
2024/04/16 09:25:15;;;;;;;;;;;;;;;26.52;22.45;96899.69;5456796;26;19929;-81
2024/04/16 09:27:41;;;;;;;;;;;;;;;25.46;22.19;96898.41;5457224;26;19928;-81
2024/04/16 09:30:07;;;;;;;;;;;;;;;23.57;25.35;96885.56;5426232;26;19928;-81
2024/04/16 09:32:33;;;;;;;;;;;;;;;25.06;22.18;96898.59;5456452;26;19936;-81
2024/04/16 09:34:59;;;;;;;;;;;;;;;24.96;21.58;96899.06;5456698;26;19936;-81
2024/04/16 09:37:26;;;;;;;;;;;;;;;25.97;20.34;96887.16;5456484;26;19944;-81
2024/04/16 09:39:52;;;;;;;;;;;;;;;26.58;20.50;96885.75;5424804;26;19996;-81
2024/04/16 09:42:22;;;;;;;;;;;;;;;27.00;20.05;96899.69;5456325;26;19929;-81
2024/04/16 09:44:48;;;;;;;;;;;;;;;25.77;23.54;96889.72;5456459;26;20376;-81
2024/04/16 09:47:16;;;;;;;;;;;;;;;25.05;21.77;96885.78;5457445;26;19940;-81
2024/04/16 09:49:43;;;;;;;;;;;;;;;24.69;23.42;96874.53;5456033;26;19928;-81
2024/04/16 09:52:12;;;;;;;;;;;;;;;25.58;22.05;96872.13;5455931;26;20253;-81
2024/04/16 09:54:43;;;;;;;;;;;;;;;24.50;23.01;96878.56;5456423;26;19929;-81
2024/04/16 09:57:09;;;;;;;;;;;;;;;25.27;28.22;96897.63;5456102;26;19928;-81
2024/04/16 09:59:39;;;;;;;;;;;;;;;26.30;20.90;96910.44;5442733;26;19929;-81
2024/04/16 10:02:07;;;;;;;;;;;;;;;26.03;20.76;96891.66;5424798;26;19929;-81
2024/04/16 10:04:34;;;;;;;;;;;;;;;25.16;21.71;96907.78;5457543;26;19969;-81
2024/04/16 10:07:00;;;;;;;;;;;;;;;25.54;22.66;96902.44;5455704;26;19936;-81
2024/04/16 10:09:26;;;;;;;;;;;;;;;24.56;22.91;96904.75;5456275;26;19960;-80
2024/04/16 10:11:52;;;;;;;;;;;;;;;24.20;22.76;96913.13;5456151;26;19940;-81
2024/04/16 10:14:18;;;;;;;;;;;;;;;24.14;22.70;96900.91;5456218;26;19928;-81
2024/04/16 10:16:46;;;;;;;;;;;;;;;24.85;27.88;96904.38;5456186;26;19932;-81
2024/04/16 10:19:13;;;;;;;;;;;;;;;24.41;22.51;96923.47;5449764;26;19935;-81
2024/04/16 10:21:39;;;;;;;;;;;;;;;24.80;22.11;96928.22;5460497;26;19935;-81
2024/04/16 10:24:09;;;;;;;;;;;;;;;24.93;21.86;96939.28;5454393;26;19932;-81
2024/04/16 10:26:41;;;;;;;;;;;;;;;25.31;21.66;96948.03;5419201;26;19940;-81
2024/04/16 10:29:17;;;;;;;;;;;;;;;24.48;21.84;96943.56;5419652;26;19929;-81
2024/04/16 10:31:49;;;;;;;;;;;;;;;24.29;22.48;96932.78;5427057;26;19936;-81
2024/04/16 10:34:25;;;;;;;;;;;;;;;24.02;22.24;96942.63;5455488;26;20249;-81
2024/04/16 10:36:52;;;;;;;;;;;;;;;23.10;27.92;96933.31;5456705;26;19957;-81
2024/04/16 10:39:18;;;;;;;;;;;;;;;23.43;23.74;96926.13;5455504;26;19936;-81
2024/04/16 10:41:57;;;;;;;;;;;;;;;24.19;22.58;96923.53;5454903;26;20474;-81
2024/04/16 10:44:23;;;;;;;;;;;;;;;25.77;21.09;96920.63;5455174;26;19936;-81
2024/04/16 10:46:53;;;;;;;;;;;;;;;25.92;22.35;96913.09;5455293;26;19928;-81
2024/04/16 10:49:22;;;;;;;;;;;;;;;25.72;20.62;96898.81;5455404;26;19936;-81
2024/04/16 10:51:49;;;;;;;;;;;;;;;25.84;20.52;96911.88;5455542;26;20009;-81
2024/04/16 10:54:15;;;;;;;;;;;;;;;25.73;20.48;96917.22;5456388;26;20368;-81
2024/04/16 10:56:42;;;;;;;;;;;;;;;24.25;25.11;96920.94;5454886;26;19932;-80
2024/04/16 10:59:14;;;;;;;;;;;;;;;26.01;20.77;96918.69;5455052;26;19941;-81
2024/04/16 11:01:40;;;;;;;;;;;;;;;25.92;20.97;96916.69;5455266;26;19928;-81
2024/04/16 11:04:10;;;;;;;;;;;;;;;25.99;22.25;96907.13;5454668;26;19932;-81
2024/04/16 11:06:37;;;;;;;;;;;;;;;26.58;20.12;96894.19;5455243;26;20267;-81
2024/04/16 11:09:03;;;;;;;;;;;;;;;24.59;22.95;96881.38;5455419;26;19928;-81
2024/04/16 11:11:30;;;;;;;;;;;;;;;25.70;20.82;96885.22;5455889;26;19929;-81
2024/04/16 11:13:56;;;;;;;;;;;;;;;25.40;22.60;96894.63;5454856;26;19940;-81
2024/04/16 11:16:22;;;;;;;;;;;;;;;26.99;20.22;96886.84;5454857;26;19935;-81
2024/04/16 11:18:49;;;;;;;;;;;;;;;26.24;20.20;96895.47;5454844;26;19935;-81
2024/04/16 11:21:15;;;;;;;;;;;;;;;27.20;20.46;96897.00;5454947;26;19961;-81
2024/04/16 11:23:41;;;;;;;;;;;;;;;28.16;19.36;96876.41;5455020;26;20000;-81
2024/04/16 11:26:08;;;;;;;;;;;;;;;29.29;18.36;96883.81;5455194;26;19952;-81
2024/04/16 11:28:38;;;;;;;;;;;;;;;29.74;17.79;96890.66;5424643;26;19928;-81
2024/04/16 11:31:04;;;;;;;;;;;;;;;30.05;17.22;96890.69;5454510;26;19929;-81
2024/04/16 11:33:33;;;;;;;;;;;;;;;29.32;18.01;96891.28;5454481;26;19928;-81
2024/04/16 11:36:02;;;;;;;;;;;;;;;29.28;18.30;96897.16;5423092;26;20375;-81
2024/04/16 11:38:28;;;;;;;;;;;;;;;29.20;17.78;96910.16;5452735;26;19929;-81
2024/04/16 11:40:56;;;;;;;;;;;;;;;28.60;17.53;96905.28;5454846;26;19928;-81
2024/04/16 11:43:22;;;;;;;;;;;;;;;27.64;18.85;96900.66;5454561;26;20368;-81
2024/04/16 11:45:48;;;;;;;;;;;;;;;27.98;18.63;96882.25;5455605;26;19933;-81
2024/04/16 11:48:14;;;;;;;;;;;;;;;28.50;18.57;96878.41;5453990;26;19936;-81
2024/04/16 11:50:40;;;;;;;;;;;;;;;27.32;19.60;96899.56;5454677;26;19957;-81
2024/04/16 11:53:06;;;;;;;;;;;;;;;27.02;19.67;96919.72;5454538;26;19929;-81
2024/04/16 11:55:32;;;;;;;;;;;;;;;26.36;20.30;96927.47;5433117;26;20270;-81
2024/04/16 11:57:59;;;;;;;;;;;;;;;26.86;19.78;96904.03;5387163;26;19969;-81
2024/04/16 12:00:25;;;;;;;;;;;;;;;26.57;19.06;96907.47;5418642;26;19929;-81
2024/04/16 12:02:51;;;;;;;;;;;;;;;27.21;18.57;96887.28;5438934;26;19932;-81
2024/04/16 12:05:18;;;;;;;;;;;;;;;27.88;18.85;96894.91;5454083;26;19928;-81
2024/04/16 12:07:44;;;;;;;;;;;;;;;27.52;19.16;96906.56;5454239;26;19997;-81
2024/04/16 12:10:10;;;;;;;;;;;;;;;26.84;23.65;96900.13;5454047;26;19998;-81
2024/04/16 12:12:36;;;;;;;;;;;;;;;26.06;21.70;96901.16;5454227;26;20316;-81
2024/04/16 12:15:02;;;;;;;;;;;;;;;25.68;20.30;96906.63;5452648;26;19940;-81
2024/04/16 12:17:28;;;;;;;;;;;;;;;25.12;25.47;96888.28;5453571;26;19996;-81
2024/04/16 12:19:54;;;;;;;;;;;;;;;25.94;21.53;96899.34;5473845;26;19931;-81
2024/04/16 12:22:20;;;;;;;;;;;;;;;24.93;21.72;96903.56;5474455;26;19928;-82
2024/04/16 12:24:47;;;;;;;;;;;;;;;25.34;20.67;96888.09;5422091;26;20265;-81
2024/04/16 12:27:13;;;;;;;;;;;;;;;25.64;20.74;96878.69;5453874;26;19929;-81
2024/04/16 12:29:39;;;;;;;;;;;;;;;25.49;27.00;96862.94;5454026;26;19940;-81
2024/04/16 12:32:05;;;;;;;;;;;;;;;26.57;20.00;96859.63;5453710;26;20368;-81
2024/04/16 12:34:31;;;;;;;;;;;;;;;27.29;18.55;96841.31;5454136;26;19936;-81
2024/04/16 12:36:57;;;;;;;;;;;;;;;26.77;20.80;96832.91;5454671;26;20369;-81
2024/04/16 12:39:23;;;;;;;;;;;;;;;27.55;19.27;96835.91;5421999;26;19928;-81
2024/04/16 12:41:50;;;;;;;;;;;;;;;27.36;19.47;96855.03;5454027;26;19952;-81
2024/04/16 12:44:16;;;;;;;;;;;;;;;26.27;20.41;96852.31;5453700;26;19929;-81
2024/04/16 12:46:42;;;;;;;;;;;;;;;26.05;20.67;96857.41;5453789;26;19935;-81